sensor_id;sensor_type;location;lat;lon;timestamp;P1;P2;P0
63305;PMS5003;50735;52.060;1.248;2022-11-03T00:00:38;10;4;
63305;PMS5003;50735;52.060;1.248;2022-11-03T00:03:04;6;3;
63305;PMS5003;50735;52.060;1.248;2022-11-03T00:05:31;9;4;
63305;PMS5003;50735;52.060;1.248;2022-11-03T00:08:00;8;5;
63305;PMS5003;50735;52.060;1.248;2022-11-03T00:10:27;10;5;
63305;PMS5003;50735;52.060;1.248;2022-11-03T00:12:55;9;8;
63305;PMS5003;50735;52.060;1.248;2022-11-03T00:15:22;2;2;
63305;PMS5003;50735;52.060;1.248;2022-11-03T00:17:48;15;5;
63305;PMS5003;50735;52.060;1.248;2022-11-03T00:20:15;8;4;
63305;PMS5003;50735;52.060;1.248;2022-11-03T00:22:41;12;5;
63305;PMS5003;50735;52.060;1.248;2022-11-03T00:25:08;5;2;
63305;PMS5003;50735;52.060;1.248;2022-11-03T00:27:35;6;3;
63305;PMS5003;50735;52.060;1.248;2022-11-03T00:30:03;5;5;
63305;PMS5003;50735;52.060;1.248;2022-11-03T00:32:30;9;3;
63305;PMS5003;50735;52.060;1.248;2022-11-03T00:34:57;6;4;
63305;PMS5003;50735;52.060;1.248;2022-11-03T00:37:24;3;2;
63305;PMS5003;50735;52.060;1.248;2022-11-03T00:39:51;6;5;
63305;PMS5003;50735;52.060;1.248;2022-11-03T00:42:17;8;6;
63305;PMS5003;50735;52.060;1.248;2022-11-03T00:44:44;5;3;
63305;PMS5003;50735;52.060;1.248;2022-11-03T00:47:11;4;1;
63305;PMS5003;50735;52.060;1.248;2022-11-03T00:49:38;5;5;
63305;PMS5003;50735;52.060;1.248;2022-11-03T00:52:04;9;6;
63305;PMS5003;50735;52.060;1.248;2022-11-03T00:54:31;7;3;
63305;PMS5003;50735;52.060;1.248;2022-11-03T00:56:57;6;4;
63305;PMS5003;50735;52.060;1.248;2022-11-03T00:59:24;4;4;
63305;PMS5003;50735;52.060;1.248;2022-11-03T01:01:50;9;5;
63305;PMS5003;50735;52.060;1.248;2022-11-03T01:04:17;5;3;
63305;PMS5003;50735;52.060;1.248;2022-11-03T01:06:45;4;4;
63305;PMS5003;50735;52.060;1.248;2022-11-03T01:09:13;6;5;
63305;PMS5003;50735;52.060;1.248;2022-11-03T01:11:39;9;6;
63305;PMS5003;50735;52.060;1.248;2022-11-03T01:14:07;7;5;
63305;PMS5003;50735;52.060;1.248;2022-11-03T01:16:35;5;5;
63305;PMS5003;50735;52.060;1.248;2022-11-03T01:19:02;6;5;
63305;PMS5003;50735;52.060;1.248;2022-11-03T01:21:29;5;4;
63305;PMS5003;50735;52.060;1.248;2022-11-03T01:23:57;6;3;
63305;PMS5003;50735;52.060;1.248;2022-11-03T01:26:25;10;7;
63305;PMS5003;50735;52.060;1.248;2022-11-03T01:28:53;8;4;
63305;PMS5003;50735;52.060;1.248;2022-11-03T01:31:20;4;4;
63305;PMS5003;50735;52.060;1.248;2022-11-03T01:33:49;6;5;
63305;PMS5003;50735;52.060;1.248;2022-11-03T01:36:18;5;4;
63305;PMS5003;50735;52.060;1.248;2022-11-03T01:38:46;5;4;
63305;PMS5003;50735;52.060;1.248;2022-11-03T01:41:14;8;3;
63305;PMS5003;50735;52.060;1.248;2022-11-03T01:43:43;2;2;
63305;PMS5003;50735;52.060;1.248;2022-11-03T01:46:13;6;3;
63305;PMS5003;50735;52.060;1.248;2022-11-03T01:48:45;5;2;
63305;PMS5003;50735;52.060;1.248;2022-11-03T01:51:14;3;1;
63305;PMS5003;50735;52.060;1.248;2022-11-03T01:53:46;3;2;
63305;PMS5003;50735;52.060;1.248;2022-11-03T01:56:17;4;3;
63305;PMS5003;50735;52.060;1.248;2022-11-03T01:58:45;0;0;
63305;PMS5003;50735;52.060;1.248;2022-11-03T02:01:14;6;3;
63305;PMS5003;50735;52.060;1.248;2022-11-03T02:03:44;3;1;
63305;PMS5003;50735;52.060;1.248;2022-11-03T02:06:14;1;1;
63305;PMS5003;50735;52.060;1.248;2022-11-03T02:08:45;1;1;
63305;PMS5003;50735;52.060;1.248;2022-11-03T02:11:14;6;2;
63305;PMS5003;50735;52.060;1.248;2022-11-03T02:13:40;3;1;
63305;PMS5003;50735;52.060;1.248;2022-11-03T02:16:07;2;1;
63305;PMS5003;50735;52.060;1.248;2022-11-03T02:18:33;0;0;
63305;PMS5003;50735;52.060;1.248;2022-11-03T02:21:02;1;1;
63305;PMS5003;50735;52.060;1.248;2022-11-03T02:23:35;1;1;
63305;PMS5003;50735;52.060;1.248;2022-11-03T02:26:09;2;2;
63305;PMS5003;50735;52.060;1.248;2022-11-03T02:28:38;0;0;
63305;PMS5003;50735;52.060;1.248;2022-11-03T02:31:07;2;0;
63305;PMS5003;50735;52.060;1.248;2022-11-03T02:33:40;1;0;
63305;PMS5003;50735;52.060;1.248;2022-11-03T02:36:14;2;2;
63305;PMS5003;50735;52.060;1.248;2022-11-03T02:38:47;3;1;
63305;PMS5003;50735;52.060;1.248;2022-11-03T02:41:20;3;3;
63305;PMS5003;50735;52.060;1.248;2022-11-03T02:43:47;0;0;
63305;PMS5003;50735;52.060;1.248;2022-11-03T02:46:15;4;0;
63305;PMS5003;50735;52.060;1.248;2022-11-03T02:48:43;1;0;
63305;PMS5003;50735;52.060;1.248;2022-11-03T02:51:10;2;0;
63305;PMS5003;50735;52.060;1.248;2022-11-03T02:53:38;2;0;
63305;PMS5003;50735;52.060;1.248;2022-11-03T02:56:12;2;2;
63305;PMS5003;50735;52.060;1.248;2022-11-03T02:58:46;0;0;
63305;PMS5003;50735;52.060;1.248;2022-11-03T03:01:19;2;0;
63305;PMS5003;50735;52.060;1.248;2022-11-03T03:03:53;3;1;
63305;PMS5003;50735;52.060;1.248;2022-11-03T03:06:24;2;2;
63305;PMS5003;50735;52.060;1.248;2022-11-03T03:08:55;0;0;
63305;PMS5003;50735;52.060;1.248;2022-11-03T03:11:30;1;1;
63305;PMS5003;50735;52.060;1.248;2022-11-03T03:13:57;0;0;
63305;PMS5003;50735;52.060;1.248;2022-11-03T03:16:24;1;1;
63305;PMS5003;50735;52.060;1.248;2022-11-03T03:19:00;2;1;
63305;PMS5003;50735;52.060;1.248;2022-11-03T03:21:32;6;1;
63305;PMS5003;50735;52.060;1.248;2022-11-03T03:24:08;1;1;
63305;PMS5003;50735;52.060;1.248;2022-11-03T03:26:41;0;0;
63305;PMS5003;50735;52.060;1.248;2022-11-03T03:29:13;2;0;
63305;PMS5003;50735;52.060;1.248;2022-11-03T03:31:44;1;1;
63305;PMS5003;50735;52.060;1.248;2022-11-03T03:34:16;2;1;
63305;PMS5003;50735;52.060;1.248;2022-11-03T03:36:45;1;1;
63305;PMS5003;50735;52.060;1.248;2022-11-03T03:39:15;0;0;
63305;PMS5003;50735;52.060;1.248;2022-11-03T03:41:45;3;1;
63305;PMS5003;50735;52.060;1.248;2022-11-03T03:44:13;2;0;
63305;PMS5003;50735;52.060;1.248;2022-11-03T03:46:43;0;0;
63305;PMS5003;50735;52.060;1.248;2022-11-03T03:49:14;1;1;
63305;PMS5003;50735;52.060;1.248;2022-11-03T03:51:41;0;0;
63305;PMS5003;50735;52.060;1.248;2022-11-03T03:54:08;1;0;
63305;PMS5003;50735;52.060;1.248;2022-11-03T03:56:37;4;1;
63305;PMS5003;50735;52.060;1.248;2022-11-03T03:59:07;0;0;
63305;PMS5003;50735;52.060;1.248;2022-11-03T04:01:34;0;0;
63305;PMS5003;50735;52.060;1.248;2022-11-03T04:04:00;3;0;
63305;PMS5003;50735;52.060;1.248;2022-11-03T04:06:27;2;0;
63305;PMS5003;50735;52.060;1.248;2022-11-03T04:08:53;0;0;
63305;PMS5003;50735;52.060;1.248;2022-11-03T04:11:20;0;0;
63305;PMS5003;50735;52.060;1.248;2022-11-03T04:13:47;1;0;
63305;PMS5003;50735;52.060;1.248;2022-11-03T04:16:13;0;0;
63305;PMS5003;50735;52.060;1.248;2022-11-03T04:18:40;3;0;
63305;PMS5003;50735;52.060;1.248;2022-11-03T04:21:07;1;1;
63305;PMS5003;50735;52.060;1.248;2022-11-03T04:23:37;1;0;
63305;PMS5003;50735;52.060;1.248;2022-11-03T04:26:05;1;0;
63305;PMS5003;50735;52.060;1.248;2022-11-03T04:28:37;2;1;
63305;PMS5003;50735;52.060;1.248;2022-11-03T04:31:05;0;0;
63305;PMS5003;50735;52.060;1.248;2022-11-03T04:33:35;2;1;
63305;PMS5003;50735;52.060;1.248;2022-11-03T04:36:04;1;1;
63305;PMS5003;50735;52.060;1.248;2022-11-03T04:38:38;0;0;
63305;PMS5003;50735;52.060;1.248;2022-11-03T04:41:06;4;1;
63305;PMS5003;50735;52.060;1.248;2022-11-03T04:43:40;0;0;
63305;PMS5003;50735;52.060;1.248;2022-11-03T04:46:09;1;1;
63305;PMS5003;50735;52.060;1.248;2022-11-03T04:48:37;0;0;
63305;PMS5003;50735;52.060;1.248;2022-11-03T04:51:10;6;4;
63305;PMS5003;50735;52.060;1.248;2022-11-03T04:53:41;0;0;
63305;PMS5003;50735;52.060;1.248;2022-11-03T04:56:14;0;0;
63305;PMS5003;50735;52.060;1.248;2022-11-03T04:58:43;1;1;
63305;PMS5003;50735;52.060;1.248;2022-11-03T05:01:11;1;1;
63305;PMS5003;50735;52.060;1.248;2022-11-03T05:03:39;0;0;
63305;PMS5003;50735;52.060;1.248;2022-11-03T05:06:09;0;0;
63305;PMS5003;50735;52.060;1.248;2022-11-03T05:08:39;3;0;
63305;PMS5003;50735;52.060;1.248;2022-11-03T05:11:11;3;0;
63305;PMS5003;50735;52.060;1.248;2022-11-03T05:13:44;2;2;
63305;PMS5003;50735;52.060;1.248;2022-11-03T05:16:12;4;2;
63305;PMS5003;50735;52.060;1.248;2022-11-03T05:18:39;1;1;
63305;PMS5003;50735;52.060;1.248;2022-11-03T05:21:09;6;4;
63305;PMS5003;50735;52.060;1.248;2022-11-03T05:23:38;3;3;
63305;PMS5003;50735;52.060;1.248;2022-11-03T05:26:10;6;2;
63305;PMS5003;50735;52.060;1.248;2022-11-03T05:28:41;4;1;
63305;PMS5003;50735;52.060;1.248;2022-11-03T05:31:20;4;4;
63305;PMS5003;50735;52.060;1.248;2022-11-03T05:33:50;6;4;
63305;PMS5003;50735;52.060;1.248;2022-11-03T05:36:19;2;2;
63305;PMS5003;50735;52.060;1.248;2022-11-03T05:38:48;7;2;
63305;PMS5003;50735;52.060;1.248;2022-11-03T05:41:18;6;3;
63305;PMS5003;50735;52.060;1.248;2022-11-03T05:43:53;1;1;
63305;PMS5003;50735;52.060;1.248;2022-11-03T05:46:23;2;1;
63305;PMS5003;50735;52.060;1.248;2022-11-03T05:48:54;3;2;
63305;PMS5003;50735;52.060;1.248;2022-11-03T05:51:27;4;4;
63305;PMS5003;50735;52.060;1.248;2022-11-03T05:53:58;6;3;
63305;PMS5003;50735;52.060;1.248;2022-11-03T05:56:27;4;1;
63305;PMS5003;50735;52.060;1.248;2022-11-03T05:58:56;0;0;
63305;PMS5003;50735;52.060;1.248;2022-11-03T06:01:28;1;1;
63305;PMS5003;50735;52.060;1.248;2022-11-03T06:03:58;1;1;
63305;PMS5003;50735;52.060;1.248;2022-11-03T06:06:28;2;0;
63305;PMS5003;50735;52.060;1.248;2022-11-03T06:08:58;6;4;
63305;PMS5003;50735;52.060;1.248;2022-11-03T06:11:27;2;1;
63305;PMS5003;50735;52.060;1.248;2022-11-03T06:13:58;3;3;
63305;PMS5003;50735;52.060;1.248;2022-11-03T06:16:35;0;0;
63305;PMS5003;50735;52.060;1.248;2022-11-03T06:19:11;3;0;
63305;PMS5003;50735;52.060;1.248;2022-11-03T06:21:45;3;2;
63305;PMS5003;50735;52.060;1.248;2022-11-03T06:24:13;3;0;
63305;PMS5003;50735;52.060;1.248;2022-11-03T06:26:43;0;0;
63305;PMS5003;50735;52.060;1.248;2022-11-03T06:29:13;4;1;
63305;PMS5003;50735;52.060;1.248;2022-11-03T06:31:42;1;0;
63305;PMS5003;50735;52.060;1.248;2022-11-03T06:34:17;0;0;
63305;PMS5003;50735;52.060;1.248;2022-11-03T06:36:50;2;0;
63305;PMS5003;50735;52.060;1.248;2022-11-03T06:39:18;2;0;
63305;PMS5003;50735;52.060;1.248;2022-11-03T06:41:47;4;1;
63305;PMS5003;50735;52.060;1.248;2022-11-03T06:44:18;2;1;
63305;PMS5003;50735;52.060;1.248;2022-11-03T06:46:48;3;0;
63305;PMS5003;50735;52.060;1.248;2022-11-03T06:49:24;3;1;
63305;PMS5003;50735;52.060;1.248;2022-11-03T06:51:53;2;1;
63305;PMS5003;50735;52.060;1.248;2022-11-03T06:54:21;2;1;
63305;PMS5003;50735;52.060;1.248;2022-11-03T06:56:48;1;0;
63305;PMS5003;50735;52.060;1.248;2022-11-03T06:59:15;2;1;
63305;PMS5003;50735;52.060;1.248;2022-11-03T07:01:44;4;2;
63305;PMS5003;50735;52.060;1.248;2022-11-03T07:04:15;2;2;
63305;PMS5003;50735;52.060;1.248;2022-11-03T07:06:46;1;1;
63305;PMS5003;50735;52.060;1.248;2022-11-03T07:09:14;6;4;
63305;PMS5003;50735;52.060;1.248;2022-11-03T07:11:48;8;4;
63305;PMS5003;50735;52.060;1.248;2022-11-03T07:14:17;4;1;
63305;PMS5003;50735;52.060;1.248;2022-11-03T07:16:47;5;3;
63305;PMS5003;50735;52.060;1.248;2022-11-03T07:19:17;3;3;
63305;PMS5003;50735;52.060;1.248;2022-11-03T07:21:47;7;5;
63305;PMS5003;50735;52.060;1.248;2022-11-03T07:24:17;10;6;
63305;PMS5003;50735;52.060;1.248;2022-11-03T07:26:46;6;4;
63305;PMS5003;50735;52.060;1.248;2022-11-03T07:29:16;5;5;
63305;PMS5003;50735;52.060;1.248;2022-11-03T07:31:45;9;4;
63305;PMS5003;50735;52.060;1.248;2022-11-03T07:34:14;5;4;
63305;PMS5003;50735;52.060;1.248;2022-11-03T07:36:46;7;3;
63305;PMS5003;50735;52.060;1.248;2022-11-03T07:39:14;2;2;
63305;PMS5003;50735;52.060;1.248;2022-11-03T07:41:44;5;5;
63305;PMS5003;50735;52.060;1.248;2022-11-03T07:44:12;5;2;
63305;PMS5003;50735;52.060;1.248;2022-11-03T07:46:42;1;1;
63305;PMS5003;50735;52.060;1.248;2022-11-03T07:49:09;1;1;
63305;PMS5003;50735;52.060;1.248;2022-11-03T07:51:49;1;1;
63305;PMS5003;50735;52.060;1.248;2022-11-03T07:54:17;0;0;
63305;PMS5003;50735;52.060;1.248;2022-11-03T07:56:47;4;1;
63305;PMS5003;50735;52.060;1.248;2022-11-03T07:59:19;0;0;
63305;PMS5003;50735;52.060;1.248;2022-11-03T08:01:49;3;1;
63305;PMS5003;50735;52.060;1.248;2022-11-03T08:04:19;0;0;
63305;PMS5003;50735;52.060;1.248;2022-11-03T08:06:48;0;0;
63305;PMS5003;50735;52.060;1.248;2022-11-03T08:09:15;1;1;
63305;PMS5003;50735;52.060;1.248;2022-11-03T08:11:43;2;1;
63305;PMS5003;50735;52.060;1.248;2022-11-03T08:14:10;4;1;
63305;PMS5003;50735;52.060;1.248;2022-11-03T08:16:36;1;1;
63305;PMS5003;50735;52.060;1.248;2022-11-03T08:19:04;4;1;
63305;PMS5003;50735;52.060;1.248;2022-11-03T08:21:31;4;1;
63305;PMS5003;50735;52.060;1.248;2022-11-03T08:23:58;6;2;
63305;PMS5003;50735;52.060;1.248;2022-11-03T08:26:24;2;2;
63305;PMS5003;50735;52.060;1.248;2022-11-03T08:28:52;2;0;
63305;PMS5003;50735;52.060;1.248;2022-11-03T08:31:19;4;3;
63305;PMS5003;50735;52.060;1.248;2022-11-03T08:33:46;1;0;
63305;PMS5003;50735;52.060;1.248;2022-11-03T08:36:13;2;2;
63305;PMS5003;50735;52.060;1.248;2022-11-03T08:38:40;1;1;
63305;PMS5003;50735;52.060;1.248;2022-11-03T08:41:07;1;1;
63305;PMS5003;50735;52.060;1.248;2022-11-03T08:43:33;3;1;
63305;PMS5003;50735;52.060;1.248;2022-11-03T08:46:00;2;1;
63305;PMS5003;50735;52.060;1.248;2022-11-03T08:48:26;1;1;
63305;PMS5003;50735;52.060;1.248;2022-11-03T08:50:53;1;1;
63305;PMS5003;50735;52.060;1.248;2022-11-03T08:53:22;4;2;
63305;PMS5003;50735;52.060;1.248;2022-11-03T08:55:51;2;1;
63305;PMS5003;50735;52.060;1.248;2022-11-03T08:58:18;0;0;
63305;PMS5003;50735;52.060;1.248;2022-11-03T09:00:45;2;1;
63305;PMS5003;50735;52.060;1.248;2022-11-03T09:03:12;2;2;
63305;PMS5003;50735;52.060;1.248;2022-11-03T09:05:39;0;0;
63305;PMS5003;50735;52.060;1.248;2022-11-03T09:08:07;0;0;
63305;PMS5003;50735;52.060;1.248;2022-11-03T09:10:34;3;1;
63305;PMS5003;50735;52.060;1.248;2022-11-03T09:13:02;0;0;
63305;PMS5003;50735;52.060;1.248;2022-11-03T09:15:28;1;1;
63305;PMS5003;50735;52.060;1.248;2022-11-03T09:17:55;0;0;
63305;PMS5003;50735;52.060;1.248;2022-11-03T09:20:21;0;0;
63305;PMS5003;50735;52.060;1.248;2022-11-03T09:22:49;0;0;
63305;PMS5003;50735;52.060;1.248;2022-11-03T09:25:15;1;1;
63305;PMS5003;50735;52.060;1.248;2022-11-03T09:27:42;0;0;
63305;PMS5003;50735;52.060;1.248;2022-11-03T09:30:09;1;1;
63305;PMS5003;50735;52.060;1.248;2022-11-03T09:32:37;0;0;
63305;PMS5003;50735;52.060;1.248;2022-11-03T09:35:04;0;0;
63305;PMS5003;50735;52.060;1.248;2022-11-03T09:37:32;1;1;
63305;PMS5003;50735;52.060;1.248;2022-11-03T09:39:59;1;1;
63305;PMS5003;50735;52.060;1.248;2022-11-03T09:42:25;0;0;
63305;PMS5003;50735;52.060;1.248;2022-11-03T09:44:53;2;2;
63305;PMS5003;50735;52.060;1.248;2022-11-03T09:47:22;0;0;
63305;PMS5003;50735;52.060;1.248;2022-11-03T09:49:51;1;1;
63305;PMS5003;50735;52.060;1.248;2022-11-03T09:52:19;1;1;
63305;PMS5003;50735;52.060;1.248;2022-11-03T09:54:48;2;2;
63305;PMS5003;50735;52.060;1.248;2022-11-03T09:57:16;0;0;
63305;PMS5003;50735;52.060;1.248;2022-11-03T09:59:43;2;1;
63305;PMS5003;50735;52.060;1.248;2022-11-03T10:02:15;2;1;
63305;PMS5003;50735;52.060;1.248;2022-11-03T10:04:46;0;0;
63305;PMS5003;50735;52.060;1.248;2022-11-03T10:07:14;1;1;
63305;PMS5003;50735;52.060;1.248;2022-11-03T10:09:41;2;2;
63305;PMS5003;50735;52.060;1.248;2022-11-03T10:12:11;0;0;
63305;PMS5003;50735;52.060;1.248;2022-11-03T10:14:39;1;1;
63305;PMS5003;50735;52.060;1.248;2022-11-03T10:17:07;3;3;
63305;PMS5003;50735;52.060;1.248;2022-11-03T10:19:39;4;4;
63305;PMS5003;50735;52.060;1.248;2022-11-03T10:22:05;2;2;
63305;PMS5003;50735;52.060;1.248;2022-11-03T10:24:33;1;1;
63305;PMS5003;50735;52.060;1.248;2022-11-03T10:26:59;1;1;
63305;PMS5003;50735;52.060;1.248;2022-11-03T10:29:26;5;1;
63305;PMS5003;50735;52.060;1.248;2022-11-03T10:31:54;2;1;
63305;PMS5003;50735;52.060;1.248;2022-11-03T10:34:24;0;0;
63305;PMS5003;50735;52.060;1.248;2022-11-03T10:37:09;1;1;
63305;PMS5003;50735;52.060;1.248;2022-11-03T10:39:40;0;0;
63305;PMS5003;50735;52.060;1.248;2022-11-03T10:42:07;2;0;
63305;PMS5003;50735;52.060;1.248;2022-11-03T10:44:43;2;1;
63305;PMS5003;50735;52.060;1.248;2022-11-03T10:47:20;1;0;
63305;PMS5003;50735;52.060;1.248;2022-11-03T10:49:50;1;1;
63305;PMS5003;50735;52.060;1.248;2022-11-03T10:52:18;0;0;
63305;PMS5003;50735;52.060;1.248;2022-11-03T10:54:47;0;0;
63305;PMS5003;50735;52.060;1.248;2022-11-03T10:57:15;3;1;
63305;PMS5003;50735;52.060;1.248;2022-11-03T10:59:43;1;1;
63305;PMS5003;50735;52.060;1.248;2022-11-03T11:02:14;1;1;
63305;PMS5003;50735;52.060;1.248;2022-11-03T11:04:44;3;1;
63305;PMS5003;50735;52.060;1.248;2022-11-03T11:07:17;3;1;
63305;PMS5003;50735;52.060;1.248;2022-11-03T11:09:46;1;1;
63305;PMS5003;50735;52.060;1.248;2022-11-03T11:12:14;3;1;
63305;PMS5003;50735;52.060;1.248;2022-11-03T11:14:50;2;0;
63305;PMS5003;50735;52.060;1.248;2022-11-03T11:17:52;6;4;
63305;PMS5003;50735;52.060;1.248;2022-11-03T11:20:28;1;1;
63305;PMS5003;50735;52.060;1.248;2022-11-03T11:23:46;1;1;
63305;PMS5003;50735;52.060;1.248;2022-11-03T11:26:15;1;0;
63305;PMS5003;50735;52.060;1.248;2022-11-03T11:29:32;0;0;
63305;PMS5003;50735;52.060;1.248;2022-11-03T11:31:59;1;1;
63305;PMS5003;50735;52.060;1.248;2022-11-03T11:35:17;1;1;
63305;PMS5003;50735;52.060;1.248;2022-11-03T11:38:52;0;0;
63305;PMS5003;50735;52.060;1.248;2022-11-03T11:42:28;1;1;
63305;PMS5003;50735;52.060;1.248;2022-11-03T11:44:56;1;1;
63305;PMS5003;50735;52.060;1.248;2022-11-03T11:47:24;0;0;
63305;PMS5003;50735;52.060;1.248;2022-11-03T11:50:55;3;3;
63305;PMS5003;50735;52.060;1.248;2022-11-03T11:53:23;2;2;
63305;PMS5003;50735;52.060;1.248;2022-11-03T11:55:52;1;1;
63305;PMS5003;50735;52.060;1.248;2022-11-03T11:58:23;1;1;
63305;PMS5003;50735;52.060;1.248;2022-11-03T12:00:56;1;1;
63305;PMS5003;50735;52.060;1.248;2022-11-03T12:03:26;0;0;
63305;PMS5003;50735;52.060;1.248;2022-11-03T12:05:56;1;1;
63305;PMS5003;50735;52.060;1.248;2022-11-03T12:08:25;2;2;
63305;PMS5003;50735;52.060;1.248;2022-11-03T12:10:54;3;2;
63305;PMS5003;50735;52.060;1.248;2022-11-03T12:13:54;2;2;
63305;PMS5003;50735;52.060;1.248;2022-11-03T12:16:29;1;1;
63305;PMS5003;50735;52.060;1.248;2022-11-03T12:19:30;2;2;
63305;PMS5003;50735;52.060;1.248;2022-11-03T12:21:59;2;2;
63305;PMS5003;50735;52.060;1.248;2022-11-03T12:24:33;5;4;
63305;PMS5003;50735;52.060;1.248;2022-11-03T12:27:03;1;1;
63305;PMS5003;50735;52.060;1.248;2022-11-03T12:29:45;3;3;
63305;PMS5003;50735;52.060;1.248;2022-11-03T12:32:11;1;1;
63305;PMS5003;50735;52.060;1.248;2022-11-03T12:34:38;1;1;
63305;PMS5003;50735;52.060;1.248;2022-11-03T12:37:04;3;3;
63305;PMS5003;50735;52.060;1.248;2022-11-03T12:39:31;1;1;
63305;PMS5003;50735;52.060;1.248;2022-11-03T12:41:58;3;1;
63305;PMS5003;50735;52.060;1.248;2022-11-03T12:44:24;3;2;
63305;PMS5003;50735;52.060;1.248;2022-11-03T12:46:51;3;3;
63305;PMS5003;50735;52.060;1.248;2022-11-03T12:49:17;3;3;
63305;PMS5003;50735;52.060;1.248;2022-11-03T12:51:44;1;1;
63305;PMS5003;50735;52.060;1.248;2022-11-03T12:54:10;3;1;
63305;PMS5003;50735;52.060;1.248;2022-11-03T12:56:37;2;1;
63305;PMS5003;50735;52.060;1.248;2022-11-03T12:59:04;3;2;
63305;PMS5003;50735;52.060;1.248;2022-11-03T13:01:30;3;2;
63305;PMS5003;50735;52.060;1.248;2022-11-03T13:03:57;0;0;
63305;PMS5003;50735;52.060;1.248;2022-11-03T13:06:23;1;1;
63305;PMS5003;50735;52.060;1.248;2022-11-03T13:08:50;1;1;
63305;PMS5003;50735;52.060;1.248;2022-11-03T13:11:17;3;1;
63305;PMS5003;50735;52.060;1.248;2022-11-03T13:13:44;2;2;
63305;PMS5003;50735;52.060;1.248;2022-11-03T13:16:11;3;2;
63305;PMS5003;50735;52.060;1.248;2022-11-03T13:18:37;2;2;
63305;PMS5003;50735;52.060;1.248;2022-11-03T13:21:04;2;2;
63305;PMS5003;50735;52.060;1.248;2022-11-03T13:23:31;1;1;
63305;PMS5003;50735;52.060;1.248;2022-11-03T13:25:58;1;1;
63305;PMS5003;50735;52.060;1.248;2022-11-03T13:28:24;1;1;
63305;PMS5003;50735;52.060;1.248;2022-11-03T13:30:51;1;1;
63305;PMS5003;50735;52.060;1.248;2022-11-03T13:33:17;1;1;
63305;PMS5003;50735;52.060;1.248;2022-11-03T13:35:44;1;1;
63305;PMS5003;50735;52.060;1.248;2022-11-03T13:38:11;3;2;
63305;PMS5003;50735;52.060;1.248;2022-11-03T13:40:37;1;1;
63305;PMS5003;50735;52.060;1.248;2022-11-03T13:43:04;3;2;
63305;PMS5003;50735;52.060;1.248;2022-11-03T13:45:31;1;1;
63305;PMS5003;50735;52.060;1.248;2022-11-03T13:47:58;3;1;
63305;PMS5003;50735;52.060;1.248;2022-11-03T13:50:24;3;3;
63305;PMS5003;50735;52.060;1.248;2022-11-03T13:52:51;2;2;
63305;PMS5003;50735;52.060;1.248;2022-11-03T13:55:17;1;1;
63305;PMS5003;50735;52.060;1.248;2022-11-03T13:57:44;4;3;
63305;PMS5003;50735;52.060;1.248;2022-11-03T14:00:11;1;1;
63305;PMS5003;50735;52.060;1.248;2022-11-03T14:02:38;2;1;
63305;PMS5003;50735;52.060;1.248;2022-11-03T14:05:05;1;1;
63305;PMS5003;50735;52.060;1.248;2022-11-03T14:07:32;24;19;
63305;PMS5003;50735;52.060;1.248;2022-11-03T14:09:59;5;5;
63305;PMS5003;50735;52.060;1.248;2022-11-03T14:12:26;4;3;
63305;PMS5003;50735;52.060;1.248;2022-11-03T14:14:52;1;1;
63305;PMS5003;50735;52.060;1.248;2022-11-03T14:17:19;4;2;
63305;PMS5003;50735;52.060;1.248;2022-11-03T14:19:46;1;1;
63305;PMS5003;50735;52.060;1.248;2022-11-03T14:22:13;5;5;
63305;PMS5003;50735;52.060;1.248;2022-11-03T14:24:39;5;3;
63305;PMS5003;50735;52.060;1.248;2022-11-03T14:27:06;1;1;
63305;PMS5003;50735;52.060;1.248;2022-11-03T14:29:32;1;1;
63305;PMS5003;50735;52.060;1.248;2022-11-03T14:32:00;2;2;
63305;PMS5003;50735;52.060;1.248;2022-11-03T14:34:26;3;3;
63305;PMS5003;50735;52.060;1.248;2022-11-03T14:36:53;5;4;
63305;PMS5003;50735;52.060;1.248;2022-11-03T14:39:19;2;2;
63305;PMS5003;50735;52.060;1.248;2022-11-03T14:41:46;3;2;
63305;PMS5003;50735;52.060;1.248;2022-11-03T14:44:13;2;2;
63305;PMS5003;50735;52.060;1.248;2022-11-03T14:46:39;4;1;
63305;PMS5003;50735;52.060;1.248;2022-11-03T14:49:06;2;2;
63305;PMS5003;50735;52.060;1.248;2022-11-03T14:51:32;1;1;
63305;PMS5003;50735;52.060;1.248;2022-11-03T14:53:59;1;1;
63305;PMS5003;50735;52.060;1.248;2022-11-03T14:56:25;1;1;
63305;PMS5003;50735;52.060;1.248;2022-11-03T14:58:53;1;1;
63305;PMS5003;50735;52.060;1.248;2022-11-03T15:01:19;3;2;
63305;PMS5003;50735;52.060;1.248;2022-11-03T15:03:47;3;1;
63305;PMS5003;50735;52.060;1.248;2022-11-03T15:06:14;5;3;
63305;PMS5003;50735;52.060;1.248;2022-11-03T15:08:40;3;3;
63305;PMS5003;50735;52.060;1.248;2022-11-03T15:11:07;3;3;
63305;PMS5003;50735;52.060;1.248;2022-11-03T15:13:35;2;2;
63305;PMS5003;50735;52.060;1.248;2022-11-03T15:16:02;4;3;
63305;PMS5003;50735;52.060;1.248;2022-11-03T15:18:29;2;2;
63305;PMS5003;50735;52.060;1.248;2022-11-03T15:20:56;5;2;
63305;PMS5003;50735;52.060;1.248;2022-11-03T15:23:22;3;3;
63305;PMS5003;50735;52.060;1.248;2022-11-03T15:25:49;6;6;
63305;PMS5003;50735;52.060;1.248;2022-11-03T15:28:16;14;6;
63305;PMS5003;50735;52.060;1.248;2022-11-03T15:30:42;13;10;
63305;PMS5003;50735;52.060;1.248;2022-11-03T15:33:09;17;15;
63305;PMS5003;50735;52.060;1.248;2022-11-03T15:35:36;9;7;
63305;PMS5003;50735;52.060;1.248;2022-11-03T15:38:02;10;6;
63305;PMS5003;50735;52.060;1.248;2022-11-03T15:40:29;2;2;
63305;PMS5003;50735;52.060;1.248;2022-11-03T15:42:56;3;3;
63305;PMS5003;50735;52.060;1.248;2022-11-03T15:45:22;3;2;
63305;PMS5003;50735;52.060;1.248;2022-11-03T15:47:49;3;3;
63305;PMS5003;50735;52.060;1.248;2022-11-03T15:50:15;5;3;
63305;PMS5003;50735;52.060;1.248;2022-11-03T15:52:43;1;1;
63305;PMS5003;50735;52.060;1.248;2022-11-03T15:55:09;3;3;
63305;PMS5003;50735;52.060;1.248;2022-11-03T15:57:37;5;4;
63305;PMS5003;50735;52.060;1.248;2022-11-03T16:00:04;5;5;
63305;PMS5003;50735;52.060;1.248;2022-11-03T16:02:32;4;4;
63305;PMS5003;50735;52.060;1.248;2022-11-03T16:04:58;4;4;
63305;PMS5003;50735;52.060;1.248;2022-11-03T16:07:25;6;6;
63305;PMS5003;50735;52.060;1.248;2022-11-03T16:09:51;6;4;
63305;PMS5003;50735;52.060;1.248;2022-11-03T16:12:18;4;4;
63305;PMS5003;50735;52.060;1.248;2022-11-03T16:14:45;4;4;
63305;PMS5003;50735;52.060;1.248;2022-11-03T16:17:11;5;5;
63305;PMS5003;50735;52.060;1.248;2022-11-03T16:19:38;5;5;
63305;PMS5003;50735;52.060;1.248;2022-11-03T16:22:04;5;5;
63305;PMS5003;50735;52.060;1.248;2022-11-03T16:24:31;7;7;
63305;PMS5003;50735;52.060;1.248;2022-11-03T16:26:58;7;5;
63305;PMS5003;50735;52.060;1.248;2022-11-03T16:29:24;5;5;
63305;PMS5003;50735;52.060;1.248;2022-11-03T16:31:51;9;7;
63305;PMS5003;50735;52.060;1.248;2022-11-03T16:34:18;8;8;
63305;PMS5003;50735;52.060;1.248;2022-11-03T16:36:45;6;6;
63305;PMS5003;50735;52.060;1.248;2022-11-03T16:39:11;7;7;
63305;PMS5003;50735;52.060;1.248;2022-11-03T16:41:38;7;6;
63305;PMS5003;50735;52.060;1.248;2022-11-03T16:44:05;14;7;
63305;PMS5003;50735;52.060;1.248;2022-11-03T16:46:32;6;6;
63305;PMS5003;50735;52.060;1.248;2022-11-03T16:48:59;8;8;
63305;PMS5003;50735;52.060;1.248;2022-11-03T16:51:25;11;8;
63305;PMS5003;50735;52.060;1.248;2022-11-03T16:53:53;7;7;
63305;PMS5003;50735;52.060;1.248;2022-11-03T16:56:19;6;6;
63305;PMS5003;50735;52.060;1.248;2022-11-03T16:58:46;26;26;
63305;PMS5003;50735;52.060;1.248;2022-11-03T17:01:13;51;49;
63305;PMS5003;50735;52.060;1.248;2022-11-03T17:03:40;13;12;
63305;PMS5003;50735;52.060;1.248;2022-11-03T17:06:06;28;23;